sensor_id;sensor_type;location;lat;lon;timestamp;temperature;humidity
53645;DHT22;39547;45.554;12.068;2024-03-02T00:05:21;11.40;92.40
53645;DHT22;39547;45.554;12.068;2024-03-02T00:11:23;11.40;92.30
53645;DHT22;39547;45.554;12.068;2024-03-02T00:17:25;11.40;92.30
53645;DHT22;39547;45.554;12.068;2024-03-02T00:23:29;11.40;92.30
53645;DHT22;39547;45.554;12.068;2024-03-02T00:29:34;11.40;92.40
53645;DHT22;39547;45.554;12.068;2024-03-02T00:35:36;11.40;92.30
53645;DHT22;39547;45.554;12.068;2024-03-02T00:41:40;11.40;92.20
53645;DHT22;39547;45.554;12.068;2024-03-02T00:47:43;11.30;92.20
53645;DHT22;39547;45.554;12.068;2024-03-02T00:53:45;11.30;92.30
53645;DHT22;39547;45.554;12.068;2024-03-02T00:59:46;11.20;92.30
53645;DHT22;39547;45.554;12.068;2024-03-02T01:05:50;11.20;92.30
53645;DHT22;39547;45.554;12.068;2024-03-02T01:11:51;11.10;92.20
53645;DHT22;39547;45.554;12.068;2024-03-02T01:17:55;11.00;92.10
53645;DHT22;39547;45.554;12.068;2024-03-02T01:23:57;10.90;92.10
53645;DHT22;39547;45.554;12.068;2024-03-02T01:29:58;10.80;91.90
53645;DHT22;39547;45.554;12.068;2024-03-02T01:36:01;10.70;91.80
53645;DHT22;39547;45.554;12.068;2024-03-02T01:42:02;10.70;92.00
53645;DHT22;39547;45.554;12.068;2024-03-02T01:48:07;10.50;92.00
53645;DHT22;39547;45.554;12.068;2024-03-02T01:54:09;10.50;92.20
53645;DHT22;39547;45.554;12.068;2024-03-02T02:00:11;10.40;92.10
53645;DHT22;39547;45.554;12.068;2024-03-02T02:06:14;10.40;92.10
53645;DHT22;39547;45.554;12.068;2024-03-02T02:12:15;10.40;92.30
53645;DHT22;39547;45.554;12.068;2024-03-02T02:18:17;10.40;92.40
53645;DHT22;39547;45.554;12.068;2024-03-02T02:24:18;10.30;92.30
53645;DHT22;39547;45.554;12.068;2024-03-02T02:30:28;10.20;92.20
53645;DHT22;39547;45.554;12.068;2024-03-02T02:36:31;10.30;92.30
53645;DHT22;39547;45.554;12.068;2024-03-02T02:42:32;10.30;92.40
53645;DHT22;39547;45.554;12.068;2024-03-02T02:48:34;10.30;92.20
53645;DHT22;39547;45.554;12.068;2024-03-02T02:54:37;10.30;92.20
53645;DHT22;39547;45.554;12.068;2024-03-02T03:00:46;10.30;92.20
53645;DHT22;39547;45.554;12.068;2024-03-02T03:06:48;10.30;92.20
53645;DHT22;39547;45.554;12.068;2024-03-02T03:12:50;10.30;92.20
53645;DHT22;39547;45.554;12.068;2024-03-02T03:18:52;10.30;92.10
53645;DHT22;39547;45.554;12.068;2024-03-02T03:24:54;10.20;92.10
53645;DHT22;39547;45.554;12.068;2024-03-02T03:30:56;10.20;92.10
53645;DHT22;39547;45.554;12.068;2024-03-02T03:36:58;10.20;92.10
53645;DHT22;39547;45.554;12.068;2024-03-02T03:42:59;10.20;92.20
53645;DHT22;39547;45.554;12.068;2024-03-02T03:49:01;10.20;92.10
53645;DHT22;39547;45.554;12.068;2024-03-02T03:55:03;10.10;92.10
53645;DHT22;39547;45.554;12.068;2024-03-02T04:01:05;10.10;92.10
53645;DHT22;39547;45.554;12.068;2024-03-02T04:07:06;10.00;92.00
53645;DHT22;39547;45.554;12.068;2024-03-02T04:13:09;9.90;92.00
53645;DHT22;39547;45.554;12.068;2024-03-02T04:19:11;9.90;92.10
53645;DHT22;39547;45.554;12.068;2024-03-02T04:25:12;9.80;92.10
53645;DHT22;39547;45.554;12.068;2024-03-02T04:31:15;9.80;92.30
53645;DHT22;39547;45.554;12.068;2024-03-02T04:37:18;9.90;92.50
53645;DHT22;39547;45.554;12.068;2024-03-02T04:43:19;10.10;92.60
53645;DHT22;39547;45.554;12.068;2024-03-02T04:49:21;10.20;92.60
53645;DHT22;39547;45.554;12.068;2024-03-02T04:55:23;10.30;92.50
53645;DHT22;39547;45.554;12.068;2024-03-02T05:01:50;10.40;92.40
53645;DHT22;39547;45.554;12.068;2024-03-02T05:07:52;10.50;92.30
53645;DHT22;39547;45.554;12.068;2024-03-02T05:13:54;10.50;92.30
53645;DHT22;39547;45.554;12.068;2024-03-02T05:19:55;10.50;92.20
53645;DHT22;39547;45.554;12.068;2024-03-02T05:25:57;10.50;92.20
53645;DHT22;39547;45.554;12.068;2024-03-02T05:31:59;10.50;92.20
53645;DHT22;39547;45.554;12.068;2024-03-02T05:38:00;10.50;92.20
53645;DHT22;39547;45.554;12.068;2024-03-02T05:44:02;10.50;92.20
53645;DHT22;39547;45.554;12.068;2024-03-02T05:50:04;10.40;92.20
53645;DHT22;39547;45.554;12.068;2024-03-02T05:56:06;10.50;92.30
53645;DHT22;39547;45.554;12.068;2024-03-02T06:02:07;10.40;92.20
53645;DHT22;39547;45.554;12.068;2024-03-02T06:08:09;10.40;92.30
53645;DHT22;39547;45.554;12.068;2024-03-02T06:14:11;10.50;92.40
53645;DHT22;39547;45.554;12.068;2024-03-02T06:20:13;10.60;92.40
53645;DHT22;39547;45.554;12.068;2024-03-02T06:26:14;10.60;92.40
53645;DHT22;39547;45.554;12.068;2024-03-02T06:32:16;10.70;92.40
53645;DHT22;39547;45.554;12.068;2024-03-02T06:38:18;10.70;92.30
53645;DHT22;39547;45.554;12.068;2024-03-02T06:44:19;10.70;92.10
53645;DHT22;39547;45.554;12.068;2024-03-02T06:50:22;10.80;92.20
53645;DHT22;39547;45.554;12.068;2024-03-02T06:56:24;10.90;92.20
53645;DHT22;39547;45.554;12.068;2024-03-02T07:02:26;11.00;92.20
53645;DHT22;39547;45.554;12.068;2024-03-02T07:08:28;11.10;91.90
53645;DHT22;39547;45.554;12.068;2024-03-02T07:14:29;11.20;91.80
53645;DHT22;39547;45.554;12.068;2024-03-02T07:20:49;11.20;91.70
53645;DHT22;39547;45.554;12.068;2024-03-02T07:26:51;11.40;91.60
53645;DHT22;39547;45.554;12.068;2024-03-02T07:32:53;11.40;91.10
53645;DHT22;39547;45.554;12.068;2024-03-02T07:38:54;11.60;91.20
53645;DHT22;39547;45.554;12.068;2024-03-02T07:44:58;11.70;90.90
53645;DHT22;39547;45.554;12.068;2024-03-02T07:50:59;11.80;90.20
53645;DHT22;39547;45.554;12.068;2024-03-02T07:57:01;11.90;90.40
53645;DHT22;39547;45.554;12.068;2024-03-02T08:03:03;11.90;90.40
53645;DHT22;39547;45.554;12.068;2024-03-02T08:09:06;12.00;90.20
53645;DHT22;39547;45.554;12.068;2024-03-02T08:15:11;12.00;90.00
53645;DHT22;39547;45.554;12.068;2024-03-02T08:21:15;11.90;90.00
53645;DHT22;39547;45.554;12.068;2024-03-02T08:27:17;12.00;90.20
53645;DHT22;39547;45.554;12.068;2024-03-02T08:33:19;12.10;90.30
53645;DHT22;39547;45.554;12.068;2024-03-02T08:39:20;12.20;90.10
53645;DHT22;39547;45.554;12.068;2024-03-02T08:45:22;12.30;90.40
53645;DHT22;39547;45.554;12.068;2024-03-02T08:51:26;12.50;90.00
53645;DHT22;39547;45.554;12.068;2024-03-02T08:57:28;12.60;89.70
53645;DHT22;39547;45.554;12.068;2024-03-02T09:03:29;12.70;89.00
53645;DHT22;39547;45.554;12.068;2024-03-02T09:09:34;12.70;89.00
53645;DHT22;39547;45.554;12.068;2024-03-02T09:15:36;12.60;89.00
53645;DHT22;39547;45.554;12.068;2024-03-02T09:21:42;12.60;89.30
53645;DHT22;39547;45.554;12.068;2024-03-02T09:27:43;12.60;89.40
53645;DHT22;39547;45.554;12.068;2024-03-02T09:33:46;12.70;89.60
53645;DHT22;39547;45.554;12.068;2024-03-02T09:39:47;12.70;89.20
53645;DHT22;39547;45.554;12.068;2024-03-02T09:45:50;12.70;89.40
53645;DHT22;39547;45.554;12.068;2024-03-02T09:51:52;12.60;89.40
53645;DHT22;39547;45.554;12.068;2024-03-02T09:57:54;12.40;89.70
53645;DHT22;39547;45.554;12.068;2024-03-02T10:04:01;12.30;90.00
53645;DHT22;39547;45.554;12.068;2024-03-02T10:10:15;12.40;90.40
53645;DHT22;39547;45.554;12.068;2024-03-02T10:16:17;12.50;90.40
53645;DHT22;39547;45.554;12.068;2024-03-02T10:22:23;12.50;90.40
53645;DHT22;39547;45.554;12.068;2024-03-02T10:28:25;12.60;90.30
53645;DHT22;39547;45.554;12.068;2024-03-02T10:34:29;12.70;90.30
53645;DHT22;39547;45.554;12.068;2024-03-02T10:40:33;12.90;90.20
53645;DHT22;39547;45.554;12.068;2024-03-02T10:46:38;12.90;90.10
53645;DHT22;39547;45.554;12.068;2024-03-02T10:52:39;13.00;89.80
53645;DHT22;39547;45.554;12.068;2024-03-02T10:58:41;13.00;89.70
53645;DHT22;39547;45.554;12.068;2024-03-02T11:04:44;12.90;89.50
53645;DHT22;39547;45.554;12.068;2024-03-02T11:10:54;12.80;89.40
53645;DHT22;39547;45.554;12.068;2024-03-02T11:17:00;12.70;89.80
53645;DHT22;39547;45.554;12.068;2024-03-02T11:23:07;12.70;90.00
53645;DHT22;39547;45.554;12.068;2024-03-02T11:29:50;12.70;90.10
53645;DHT22;39547;45.554;12.068;2024-03-02T11:35:51;12.70;90.10
53645;DHT22;39547;45.554;12.068;2024-03-02T11:41:53;12.80;90.00
53645;DHT22;39547;45.554;12.068;2024-03-02T11:47:56;12.90;89.80
53645;DHT22;39547;45.554;12.068;2024-03-02T11:53:58;13.00;89.60
53645;DHT22;39547;45.554;12.068;2024-03-02T12:00:00;13.00;89.60
53645;DHT22;39547;45.554;12.068;2024-03-02T12:06:07;13.00;89.90
53645;DHT22;39547;45.554;12.068;2024-03-02T12:12:09;12.80;89.90
53645;DHT22;39547;45.554;12.068;2024-03-02T12:18:11;12.70;90.10
53645;DHT22;39547;45.554;12.068;2024-03-02T12:24:13;12.40;90.30
53645;DHT22;39547;45.554;12.068;2024-03-02T12:30:16;12.40;90.60
53645;DHT22;39547;45.554;12.068;2024-03-02T12:36:18;12.40;91.00
53645;DHT22;39547;45.554;12.068;2024-03-02T12:42:20;12.50;91.20
53645;DHT22;39547;45.554;12.068;2024-03-02T12:48:21;12.70;91.20
53645;DHT22;39547;45.554;12.068;2024-03-02T12:54:25;12.70;91.20
53645;DHT22;39547;45.554;12.068;2024-03-02T13:00:28;12.70;91.10
53645;DHT22;39547;45.554;12.068;2024-03-02T13:06:35;12.70;91.10
53645;DHT22;39547;45.554;12.068;2024-03-02T13:12:37;12.80;91.30
53645;DHT22;39547;45.554;12.068;2024-03-02T13:18:39;12.80;91.20
53645;DHT22;39547;45.554;12.068;2024-03-02T13:24:41;12.70;91.30
53645;DHT22;39547;45.554;12.068;2024-03-02T13:30:44;12.70;91.30
53645;DHT22;39547;45.554;12.068;2024-03-02T13:36:45;12.80;91.50
53645;DHT22;39547;45.554;12.068;2024-03-02T13:42:48;12.90;91.70
53645;DHT22;39547;45.554;12.068;2024-03-02T13:48:50;12.90;91.60
53645;DHT22;39547;45.554;12.068;2024-03-02T13:54:53;12.90;91.60
53645;DHT22;39547;45.554;12.068;2024-03-02T14:00:55;13.00;91.80
53645;DHT22;39547;45.554;12.068;2024-03-02T14:06:57;13.20;91.80
53645;DHT22;39547;45.554;12.068;2024-03-02T14:12:59;13.20;91.50
53645;DHT22;39547;45.554;12.068;2024-03-02T14:19:01;13.00;91.40
53645;DHT22;39547;45.554;12.068;2024-03-02T14:25:02;13.00;91.70
53645;DHT22;39547;45.554;12.068;2024-03-02T14:31:04;13.20;92.10
53645;DHT22;39547;45.554;12.068;2024-03-02T14:37:06;13.50;91.70
53645;DHT22;39547;45.554;12.068;2024-03-02T14:43:08;13.30;91.50
53645;DHT22;39547;45.554;12.068;2024-03-02T14:49:10;13.10;91.30
53645;DHT22;39547;45.554;12.068;2024-03-02T14:55:12;12.90;91.40
53645;DHT22;39547;45.554;12.068;2024-03-02T15:01:13;12.80;91.60
53645;DHT22;39547;45.554;12.068;2024-03-02T15:07:16;12.70;91.70
53645;DHT22;39547;45.554;12.068;2024-03-02T15:13:18;12.70;91.90
53645;DHT22;39547;45.554;12.068;2024-03-02T15:19:20;12.60;92.00
53645;DHT22;39547;45.554;12.068;2024-03-02T15:25:22;12.60;92.10
53645;DHT22;39547;45.554;12.068;2024-03-02T15:31:24;12.70;92.10
53645;DHT22;39547;45.554;12.068;2024-03-02T15:37:25;12.60;92.10
53645;DHT22;39547;45.554;12.068;2024-03-02T15:43:28;12.50;92.10
53645;DHT22;39547;45.554;12.068;2024-03-02T15:49:30;12.50;92.20
53645;DHT22;39547;45.554;12.068;2024-03-02T15:55:33;12.50;92.20
53645;DHT22;39547;45.554;12.068;2024-03-02T16:01:37;12.50;92.30
53645;DHT22;39547;45.554;12.068;2024-03-02T16:07:40;12.50;92.30
53645;DHT22;39547;45.554;12.068;2024-03-02T16:13:41;12.50;92.30
53645;DHT22;39547;45.554;12.068;2024-03-02T16:19:43;12.40;92.40
53645;DHT22;39547;45.554;12.068;2024-03-02T16:25:44;12.40;92.40
53645;DHT22;39547;45.554;12.068;2024-03-02T16:31:46;12.30;92.50
53645;DHT22;39547;45.554;12.068;2024-03-02T16:37:47;12.30;92.50
53645;DHT22;39547;45.554;12.068;2024-03-02T16:43:49;12.20;92.60
53645;DHT22;39547;45.554;12.068;2024-03-02T16:49:50;12.20;92.60
53645;DHT22;39547;45.554;12.068;2024-03-02T16:55:52;12.20;92.70
53645;DHT22;39547;45.554;12.068;2024-03-02T17:01:54;12.20;92.70
53645;DHT22;39547;45.554;12.068;2024-03-02T17:07:56;12.20;92.80
53645;DHT22;39547;45.554;12.068;2024-03-02T17:13:59;12.10;92.80
53645;DHT22;39547;45.554;12.068;2024-03-02T17:20:01;12.10;92.90
53645;DHT22;39547;45.554;12.068;2024-03-02T17:26:03;12.10;92.90
53645;DHT22;39547;45.554;12.068;2024-03-02T17:32:05;12.10;92.90
53645;DHT22;39547;45.554;12.068;2024-03-02T17:38:06;12.00;92.80
53645;DHT22;39547;45.554;12.068;2024-03-02T17:44:09;12.00;92.90
53645;DHT22;39547;45.554;12.068;2024-03-02T17:50:11;12.00;92.90
53645;DHT22;39547;45.554;12.068;2024-03-02T17:56:13;11.90;92.80
53645;DHT22;39547;45.554;12.068;2024-03-02T18:02:14;11.80;92.70
53645;DHT22;39547;45.554;12.068;2024-03-02T18:08:16;11.80;92.90
53645;DHT22;39547;45.554;12.068;2024-03-02T18:14:19;11.70;92.80
53645;DHT22;39547;45.554;12.068;2024-03-02T18:20:21;11.70;93.00
53645;DHT22;39547;45.554;12.068;2024-03-02T18:26:22;11.70;93.10
53645;DHT22;39547;45.554;12.068;2024-03-02T18:32:25;11.70;93.10
53645;DHT22;39547;45.554;12.068;2024-03-02T18:38:27;11.70;93.10
53645;DHT22;39547;45.554;12.068;2024-03-02T18:44:29;11.70;93.10
53645;DHT22;39547;45.554;12.068;2024-03-02T18:50:31;11.70;93.10
53645;DHT22;39547;45.554;12.068;2024-03-02T18:56:34;11.70;93.10
53645;DHT22;39547;45.554;12.068;2024-03-02T19:02:36;11.70;93.10
53645;DHT22;39547;45.554;12.068;2024-03-02T19:08:38;11.70;93.20
53645;DHT22;39547;45.554;12.068;2024-03-02T19:14:42;11.70;93.10
53645;DHT22;39547;45.554;12.068;2024-03-02T19:20:45;11.70;93.10
53645;DHT22;39547;45.554;12.068;2024-03-02T19:26:46;11.70;93.20
53645;DHT22;39547;45.554;12.068;2024-03-02T19:32:48;11.70;93.20
53645;DHT22;39547;45.554;12.068;2024-03-02T19:38:49;11.70;93.10
53645;DHT22;39547;45.554;12.068;2024-03-02T19:44:51;11.70;93.20
53645;DHT22;39547;45.554;12.068;2024-03-02T19:50:55;11.70;93.10
53645;DHT22;39547;45.554;12.068;2024-03-02T19:56:56;11.80;93.20
53645;DHT22;39547;45.554;12.068;2024-03-02T20:02:58;11.70;93.20
53645;DHT22;39547;45.554;12.068;2024-03-02T20:09:02;11.70;93.10
53645;DHT22;39547;45.554;12.068;2024-03-02T20:15:05;11.70;93.10
53645;DHT22;39547;45.554;12.068;2024-03-02T20:21:07;11.70;93.10
53645;DHT22;39547;45.554;12.068;2024-03-02T20:27:09;11.60;93.10
53645;DHT22;39547;45.554;12.068;2024-03-02T20:33:12;11.60;93.10
53645;DHT22;39547;45.554;12.068;2024-03-02T20:39:13;11.50;93.10
53645;DHT22;39547;45.554;12.068;2024-03-02T20:45:15;11.40;93.10
53645;DHT22;39547;45.554;12.068;2024-03-02T20:51:16;11.30;93.10
53645;DHT22;39547;45.554;12.068;2024-03-02T20:57:18;11.30;93.30
53645;DHT22;39547;45.554;12.068;2024-03-02T21:03:20;11.40;93.30
53645;DHT22;39547;45.554;12.068;2024-03-02T21:09:23;11.40;93.30
53645;DHT22;39547;45.554;12.068;2024-03-02T21:15:24;11.40;93.30
53645;DHT22;39547;45.554;12.068;2024-03-02T21:21:27;11.30;93.20
53645;DHT22;39547;45.554;12.068;2024-03-02T21:27:29;11.40;93.30
53645;DHT22;39547;45.554;12.068;2024-03-02T21:33:30;11.40;93.40
53645;DHT22;39547;45.554;12.068;2024-03-02T21:39:32;11.40;93.40
53645;DHT22;39547;45.554;12.068;2024-03-02T21:45:33;11.50;93.40
53645;DHT22;39547;45.554;12.068;2024-03-02T21:51:35;11.50;93.40
53645;DHT22;39547;45.554;12.068;2024-03-02T21:57:38;11.50;93.30
53645;DHT22;39547;45.554;12.068;2024-03-02T22:03:39;11.40;93.30
53645;DHT22;39547;45.554;12.068;2024-03-02T22:09:46;11.30;93.20
53645;DHT22;39547;45.554;12.068;2024-03-02T22:15:48;11.20;93.20
53645;DHT22;39547;45.554;12.068;2024-03-02T22:21:49;11.00;93.10
53645;DHT22;39547;45.554;12.068;2024-03-02T22:27:51;10.90;93.10
53645;DHT22;39547;45.554;12.068;2024-03-02T22:33:56;10.80;93.00
53645;DHT22;39547;45.554;12.068;2024-03-02T22:39:57;10.70;93.00
53645;DHT22;39547;45.554;12.068;2024-03-02T22:45:59;10.60;93.00
53645;DHT22;39547;45.554;12.068;2024-03-02T22:52:00;10.50;93.20
53645;DHT22;39547;45.554;12.068;2024-03-02T22:58:02;10.50;93.40
53645;DHT22;39547;45.554;12.068;2024-03-02T23:04:04;10.50;93.50
53645;DHT22;39547;45.554;12.068;2024-03-02T23:10:06;10.60;93.60
53645;DHT22;39547;45.554;12.068;2024-03-02T23:16:08;10.70;93.60
53645;DHT22;39547;45.554;12.068;2024-03-02T23:22:10;10.70;93.40
53645;DHT22;39547;45.554;12.068;2024-03-02T23:28:12;10.60;93.40
53645;DHT22;39547;45.554;12.068;2024-03-02T23:34:13;10.60;93.40
53645;DHT22;39547;45.554;12.068;2024-03-02T23:40:15;10.60;93.50
53645;DHT22;39547;45.554;12.068;2024-03-02T23:46:16;10.60;93.40
53645;DHT22;39547;45.554;12.068;2024-03-02T23:52:18;10.50;93.20
53645;DHT22;39547;45.554;12.068;2024-03-02T23:58:19;10.40;93.10
